createdAt,value
2023-03-06T00:02:54.699Z,29.54
2023-03-06T00:06:54.637Z,29.55
2023-03-06T00:10:54.665Z,29.57
2023-03-06T00:14:54.631Z,29.58
2023-03-06T00:18:54.707Z,29.56
2023-03-06T00:22:54.708Z,29.56
2023-03-06T00:26:54.681Z,29.55
2023-03-06T00:30:54.721Z,29.57
2023-03-06T00:34:54.731Z,29.54
2023-03-06T00:38:54.710Z,29.54
2023-03-06T00:42:54.784Z,29.58
2023-03-06T00:46:54.788Z,29.54
2023-03-06T00:50:54.785Z,29.53
2023-03-06T00:54:54.815Z,29.55
2023-03-06T00:58:54.850Z,29.55
2023-03-06T01:02:54.827Z,29.57
2023-03-06T01:06:54.802Z,29.56
2023-03-06T01:10:54.773Z,29.58
2023-03-06T01:14:54.834Z,29.56
2023-03-06T01:18:54.786Z,29.57
2023-03-06T01:22:54.826Z,29.57
2023-03-06T01:26:54.812Z,29.56
2023-03-06T01:30:54.915Z,29.57
2023-03-06T01:34:54.822Z,29.58
2023-03-06T01:38:54.847Z,29.55
2023-03-06T01:42:54.982Z,29.57
2023-03-06T01:46:54.839Z,29.58
2023-03-06T01:50:54.877Z,29.56
2023-03-06T01:54:54.955Z,29.54
2023-03-06T01:58:54.970Z,29.56
2023-03-06T02:02:55.175Z,29.58
2023-03-06T02:06:54.955Z,29.56
2023-03-06T02:10:54.973Z,29.57
2023-03-06T02:14:54.998Z,29.55
2023-03-06T02:18:55.008Z,29.55
2023-03-06T02:22:54.997Z,29.57
2023-03-06T02:26:55.019Z,29.56
2023-03-06T02:30:55.152Z,29.59
2023-03-06T02:34:55.121Z,29.56
2023-03-06T02:38:55.102Z,29.58
2023-03-06T02:42:55.151Z,29.59
2023-03-06T02:46:55.134Z,29.57
2023-03-06T02:50:55.157Z,29.57
2023-03-06T02:54:55.150Z,29.59
2023-03-06T02:58:55.189Z,29.57
2023-03-06T03:02:55.187Z,29.59
2023-03-06T03:06:55.183Z,29.57
2023-03-06T03:10:55.292Z,29.56
2023-03-06T03:14:55.248Z,29.58
2023-03-06T03:18:55.265Z,29.56
2023-03-06T03:22:55.328Z,29.56
2023-03-06T03:26:55.308Z,29.57
2023-03-06T03:30:55.335Z,29.60
2023-03-06T03:34:55.328Z,29.56
2023-03-06T03:38:55.305Z,29.56
2023-03-06T03:42:55.412Z,29.57
2023-03-06T03:46:55.341Z,29.60
2023-03-06T03:50:55.375Z,29.56
2023-03-06T03:54:55.387Z,29.59
2023-03-06T03:58:55.416Z,29.58
2023-03-06T04:02:55.433Z,29.59
2023-03-06T04:06:55.440Z,29.57
2023-03-06T04:10:55.517Z,29.54
2023-03-06T04:14:55.498Z,29.58
2023-03-06T04:18:55.525Z,29.59
2023-03-06T04:22:55.535Z,29.57
2023-03-06T04:26:55.592Z,29.58
2023-03-06T04:30:55.599Z,29.58
2023-03-06T04:34:55.675Z,29.56
2023-03-06T04:38:55.751Z,29.57
2023-03-06T04:42:55.789Z,29.56
2023-03-06T04:46:55.822Z,29.59
2023-03-06T04:50:55.897Z,29.58
2023-03-06T04:54:55.964Z,29.58
2023-03-06T04:58:55.998Z,29.56
2023-03-06T05:02:56.042Z,29.55
2023-03-06T05:06:56.257Z,29.21
2023-03-06T05:10:56.188Z,28.83
2023-03-06T05:14:56.241Z,28.54
2023-03-06T05:18:56.767Z,28.28
2023-03-06T05:22:56.328Z,28.07
2023-03-06T05:26:56.427Z,27.77
2023-03-06T05:30:56.543Z,27.52
2023-03-06T05:34:56.553Z,27.60
2023-03-06T05:38:56.608Z,27.65
2023-03-06T05:42:56.689Z,27.72
2023-03-06T05:46:56.742Z,27.80
2023-03-06T05:50:56.778Z,27.86
2023-03-06T05:54:56.816Z,27.90
2023-03-06T05:58:56.849Z,27.99
2023-03-06T06:02:56.871Z,28.03
2023-03-06T06:06:56.922Z,28.04
2023-03-06T06:10:57.025Z,27.92
2023-03-06T06:14:56.997Z,27.91
2023-03-06T06:18:56.967Z,27.89
2023-03-06T06:22:57.009Z,27.81
2023-03-06T06:26:57.013Z,27.80
2023-03-06T06:30:57.079Z,27.77
2023-03-06T06:34:56.966Z,28.08
2023-03-06T06:38:57.297Z,28.68
2023-03-06T06:42:57.156Z,29.23
2023-03-06T06:47:26.320Z,29.00
2023-03-06T06:50:58.125Z,29.70
2023-03-06T06:54:57.105Z,29.89
2023-03-06T06:59:03.896Z,30.13
2023-03-06T07:02:58.156Z,30.27
2023-03-06T07:06:57.182Z,30.33
2023-03-06T07:10:57.101Z,30.22
2023-03-06T07:14:57.106Z,30.30
2023-03-06T07:18:57.192Z,30.30
2023-03-06T07:22:57.114Z,30.36
2023-03-06T07:26:57.129Z,30.36
2023-03-06T07:30:57.166Z,30.55
2023-03-06T07:35:17.155Z,30.27
2023-03-06T07:38:58.259Z,29.55
2023-03-06T07:43:09.160Z,29.64
2023-03-06T07:46:58.244Z,29.49
2023-03-06T07:50:57.181Z,29.69
2023-03-06T07:54:57.091Z,29.90
2023-03-06T07:58:57.320Z,29.62
2023-03-06T08:02:57.168Z,29.75
2023-03-06T08:06:57.086Z,29.98
2023-03-06T08:10:57.101Z,30.02
2023-03-06T08:14:57.037Z,29.92
2023-03-06T08:18:56.947Z,29.79
2023-03-06T08:22:56.908Z,29.80
2023-03-06T08:26:56.912Z,29.80
2023-03-06T08:30:56.928Z,29.90
2023-03-06T08:34:56.846Z,29.37
2023-03-06T08:38:56.783Z,26.26
2023-03-06T08:42:56.783Z,26.95
2023-03-06T08:46:56.859Z,27.16
2023-03-06T08:50:56.822Z,27.11
2023-03-06T08:54:56.958Z,27.16
2023-03-06T08:58:56.961Z,27.19
2023-03-06T09:02:56.923Z,27.29
2023-03-06T09:06:56.864Z,27.19
2023-03-06T09:10:56.845Z,27.57
2023-03-06T09:14:56.808Z,27.51
2023-03-06T09:18:56.730Z,27.39
2023-03-06T09:22:56.695Z,27.66
2023-03-06T09:26:56.723Z,27.70
2023-03-06T09:30:56.650Z,27.05
2023-03-06T09:34:56.597Z,25.48
2023-03-06T09:38:56.672Z,24.75
2023-03-06T09:42:56.850Z,24.25
2023-03-06T09:46:56.738Z,25.02
2023-03-06T09:50:58.774Z,25.28
2023-03-06T09:54:56.880Z,25.50
2023-03-06T09:58:57.174Z,25.65
2023-03-06T10:02:57.529Z,25.85
2023-03-06T10:06:57.470Z,26.09
2023-03-06T10:10:57.650Z,26.27
2023-03-06T10:14:57.776Z,26.28
2023-03-06T10:18:59.180Z,26.36
2023-03-06T10:23:01.312Z,26.43
2023-03-06T10:26:59.002Z,26.55
2023-03-06T10:30:57.785Z,27.20
2023-03-06T10:34:57.773Z,27.14
2023-03-06T10:38:57.690Z,27.47
2023-03-06T10:43:10.782Z,27.78
2023-03-06T10:46:58.664Z,28.07
2023-03-06T10:50:58.646Z,28.14
2023-03-06T10:54:57.793Z,28.19
2023-03-06T10:58:57.726Z,28.21
2023-03-06T11:02:57.714Z,28.36
2023-03-06T11:06:57.640Z,28.38
2023-03-06T11:11:05.456Z,28.63
2023-03-06T11:14:57.598Z,28.63
2023-03-06T11:18:57.520Z,28.49
2023-03-06T11:22:57.472Z,28.59
2023-03-06T11:26:57.689Z,27.97
2023-03-06T11:30:57.597Z,27.34
2023-03-06T11:34:57.694Z,26.91
2023-03-06T11:38:57.592Z,26.65
2023-03-06T11:42:57.486Z,26.26
2023-03-06T11:46:57.525Z,26.00
2023-03-06T11:50:57.436Z,25.83
2023-03-06T11:54:57.391Z,25.51
2023-03-06T11:58:57.389Z,25.38
2023-03-06T12:02:57.352Z,25.12
2023-03-06T12:06:57.343Z,25.00
2023-03-06T12:10:57.268Z,25.05
2023-03-06T12:14:57.221Z,25.23
2023-03-06T12:18:57.166Z,25.36
2023-03-06T12:23:14.428Z,25.56
2023-03-06T12:26:58.096Z,25.71
2023-03-06T12:30:57.016Z,25.85
2023-03-06T12:34:56.986Z,25.91
2023-03-06T12:38:56.978Z,26.05
2023-03-06T12:42:57.019Z,26.12
2023-03-06T12:46:57.098Z,26.21
2023-03-06T12:50:57.101Z,26.30
2023-03-06T12:54:57.141Z,26.35
2023-03-06T12:58:57.156Z,26.43
2023-03-06T13:02:57.144Z,26.50
2023-03-06T13:06:57.501Z,26.85
2023-03-06T13:10:57.132Z,27.03
2023-03-06T13:14:57.141Z,26.68
2023-03-06T13:18:57.219Z,26.43
2023-03-06T13:22:57.286Z,26.15
2023-03-06T13:26:57.369Z,26.00
2023-03-06T13:30:57.390Z,25.98
2023-03-06T13:34:57.582Z,25.95
2023-03-06T13:38:57.603Z,25.85
2023-03-06T13:42:57.662Z,25.76
2023-03-06T13:46:57.693Z,25.69
2023-03-06T13:50:57.833Z,25.56
2023-03-06T13:54:58.064Z,25.56
2023-03-06T13:58:57.995Z,26.05
2023-03-06T14:02:58.033Z,25.57
2023-03-06T14:06:57.974Z,25.26
2023-03-06T14:10:57.969Z,25.33
2023-03-06T14:14:57.979Z,25.28
2023-03-06T14:18:58.089Z,25.26
2023-03-06T14:22:58.137Z,25.24
2023-03-06T14:26:58.262Z,25.29
2023-03-06T14:30:58.393Z,25.30
2023-03-06T14:34:58.444Z,25.29
2023-03-06T14:38:58.537Z,25.33
2023-03-06T14:42:59.000Z,25.62
2023-03-06T14:46:58.631Z,25.50
2023-03-06T14:50:58.620Z,25.27
2023-03-06T14:54:58.626Z,25.00
2023-03-06T14:58:58.654Z,24.68
2023-03-06T15:02:58.677Z,24.57
2023-03-06T15:06:58.671Z,24.33
2023-03-06T15:10:58.679Z,24.30
2023-03-06T15:14:58.709Z,24.15
2023-03-06T15:18:58.816Z,24.16
2023-03-06T15:22:58.813Z,24.17
2023-03-06T15:26:58.879Z,24.28
2023-03-06T15:30:58.918Z,24.44
2023-03-06T15:34:58.941Z,24.53
2023-03-06T15:38:58.977Z,24.64
2023-03-06T15:42:59.005Z,24.73
2023-03-06T15:47:08.452Z,24.83
2023-03-06T15:51:00.019Z,24.95
2023-03-06T15:54:58.937Z,25.00
2023-03-06T15:58:58.896Z,25.09
2023-03-06T16:02:58.931Z,25.19
2023-03-06T16:06:58.810Z,25.24
2023-03-06T16:10:58.773Z,25.32
2023-03-06T16:14:58.767Z,25.36
2023-03-06T16:18:58.795Z,25.42
2023-03-06T16:22:58.872Z,25.46
2023-03-06T16:26:58.934Z,25.53
2023-03-06T16:30:59.067Z,25.59
2023-03-06T16:34:59.064Z,25.63
2023-03-06T16:38:59.153Z,25.68
2023-03-06T16:42:59.195Z,25.74
2023-03-06T16:46:59.298Z,25.75
2023-03-06T16:50:59.400Z,25.84
2023-03-06T16:54:59.450Z,25.87
2023-03-06T16:58:59.526Z,25.91
2023-03-06T17:02:59.658Z,25.94
2023-03-06T17:06:59.799Z,26.00
2023-03-06T17:10:59.968Z,26.03
2023-03-06T17:15:00.121Z,26.05
2023-03-06T17:19:00.230Z,26.09
2023-03-06T17:23:00.348Z,26.12
2023-03-06T17:27:00.482Z,26.17
2023-03-06T17:31:00.641Z,26.16
2023-03-06T17:35:00.732Z,26.21
2023-03-06T17:39:00.895Z,26.22
2023-03-06T17:43:01.036Z,26.26
2023-03-06T17:47:01.171Z,26.27
2023-03-06T17:51:01.342Z,26.28
2023-03-06T17:55:01.494Z,26.32
2023-03-06T17:59:01.605Z,26.29
2023-03-06T18:03:02.068Z,26.32
2023-03-06T18:07:02.013Z,26.35
2023-03-06T18:11:02.223Z,26.36
2023-03-06T18:15:02.437Z,26.40
2023-03-06T18:19:02.587Z,26.44
2023-03-06T18:23:02.795Z,26.46
2023-03-06T18:27:02.964Z,26.49
2023-03-06T18:31:03.178Z,26.48
2023-03-06T18:35:03.460Z,26.50
2023-03-06T18:39:04.248Z,26.52
2023-03-06T18:43:03.803Z,26.56
2023-03-06T18:47:03.787Z,26.54
2023-03-06T18:51:03.744Z,26.45
2023-03-06T18:55:03.673Z,26.41
2023-03-06T18:59:03.661Z,26.33
2023-03-06T19:03:03.596Z,26.21
2023-03-06T19:07:03.541Z,26.10
2023-03-06T19:11:03.596Z,26.02
2023-03-06T19:15:03.495Z,25.98
2023-03-06T19:19:03.493Z,25.88
2023-03-06T19:23:03.443Z,25.95
2023-03-06T19:27:03.436Z,25.94
2023-03-06T19:31:03.419Z,26.00
2023-03-06T19:35:03.426Z,26.02
2023-03-06T19:39:03.334Z,26.06
2023-03-06T19:43:03.279Z,26.07
2023-03-06T19:47:03.346Z,26.09
2023-03-06T19:51:03.201Z,26.15
2023-03-06T19:55:03.167Z,26.17
2023-03-06T19:59:03.156Z,26.20
2023-03-06T20:03:03.199Z,26.22
2023-03-06T20:07:03.158Z,26.26
2023-03-06T20:11:03.138Z,26.29
2023-03-06T20:15:03.099Z,26.33
2023-03-06T20:19:03.081Z,26.36
2023-03-06T20:23:02.994Z,26.40
2023-03-06T20:27:02.967Z,26.44
2023-03-06T20:31:02.944Z,26.48
2023-03-06T20:35:02.876Z,26.50
2023-03-06T20:39:02.837Z,26.54
2023-03-06T20:43:02.830Z,26.54
2023-03-06T20:47:03.067Z,26.57
2023-03-06T20:51:03.010Z,26.60
2023-03-06T20:55:02.930Z,26.63
2023-03-06T20:59:02.943Z,26.63
2023-03-06T21:03:02.862Z,26.64
2023-03-06T21:07:02.792Z,26.65
2023-03-06T21:11:02.786Z,26.66
2023-03-06T21:15:02.735Z,26.67
2023-03-06T21:19:02.760Z,26.68
2023-03-06T21:23:02.693Z,26.66
2023-03-06T21:27:02.660Z,26.67
2023-03-06T21:31:02.844Z,26.68
2023-03-06T21:35:02.713Z,26.70
2023-03-06T21:39:02.652Z,26.70
2023-03-06T21:43:02.635Z,26.72
2023-03-06T21:47:02.649Z,26.71
2023-03-06T21:51:02.554Z,26.70
2023-03-06T21:55:02.539Z,26.73
2023-03-06T21:59:02.503Z,26.72
2023-03-06T22:03:02.417Z,26.72
2023-03-06T22:07:02.416Z,26.74
2023-03-06T22:11:02.371Z,26.74
2023-03-06T22:15:02.363Z,26.75
2023-03-06T22:19:02.388Z,26.75
2023-03-06T22:23:02.304Z,26.76
2023-03-06T22:27:02.259Z,26.77
2023-03-06T22:31:02.223Z,26.76
2023-03-06T22:35:02.201Z,26.75
2023-03-06T22:39:02.159Z,26.78
2023-03-06T22:43:02.097Z,26.78
2023-03-06T22:47:02.035Z,26.80
2023-03-06T22:51:02.137Z,26.80
2023-03-06T22:55:02.072Z,26.76
2023-03-06T22:59:02.018Z,26.80
2023-03-06T23:03:02.007Z,26.80
2023-03-06T23:07:01.969Z,26.80
2023-03-06T23:11:01.904Z,26.80
2023-03-06T23:15:01.967Z,26.79
2023-03-06T23:19:01.856Z,26.79
2023-03-06T23:23:01.806Z,26.79
2023-03-06T23:27:01.726Z,26.81
2023-03-06T23:31:01.756Z,26.79
2023-03-06T23:35:01.958Z,26.79
2023-03-06T23:39:02.114Z,26.81
2023-03-06T23:43:02.325Z,26.83
2023-03-06T23:47:02.308Z,26.83
2023-03-06T23:51:02.328Z,26.86
2023-03-06T23:55:02.258Z,26.85
2023-03-06T23:59:02.184Z,26.85
